createdAt,value
2023-02-22T00:00:56.251Z,6.80
2023-02-22T00:03:26.207Z,6.80
2023-02-22T00:05:58.118Z,6.70
2023-02-22T00:08:30.495Z,6.70
2023-02-22T00:10:58.490Z,6.60
2023-02-22T00:13:25.554Z,6.60
2023-02-22T00:15:52.314Z,6.50
2023-02-22T00:18:19.620Z,6.50
2023-02-22T00:20:46.351Z,6.40
2023-02-22T00:23:19.688Z,6.40
2023-02-22T00:25:48.031Z,6.40
2023-02-22T00:28:17.004Z,6.30
2023-02-22T00:30:44.346Z,6.30
2023-02-22T00:33:13.043Z,6.30
2023-02-22T00:35:40.232Z,6.20
2023-02-22T00:38:08.014Z,6.20
2023-02-22T00:40:35.912Z,6.10
2023-02-22T00:43:04.930Z,6.10
2023-02-22T00:45:33.654Z,6.00
2023-02-22T00:48:01.445Z,6.00
2023-02-22T00:50:29.857Z,6.00
2023-02-22T00:52:58.150Z,5.90
2023-02-22T00:55:33.861Z,5.90
2023-02-22T00:58:01.994Z,5.90
2023-02-22T01:00:33.483Z,5.80
2023-02-22T01:03:00.743Z,5.80
2023-02-22T01:05:30.460Z,5.70
2023-02-22T01:08:00.523Z,5.70
2023-02-22T01:10:29.930Z,5.60
2023-02-22T01:12:58.352Z,5.60
2023-02-22T01:15:28.938Z,5.60
2023-02-22T01:17:58.275Z,5.60
2023-02-22T01:20:26.589Z,5.50
2023-02-22T01:22:55.962Z,5.50
2023-02-22T01:25:28.718Z,5.50
2023-02-22T01:27:58.494Z,5.50
2023-02-22T01:30:29.511Z,5.40
2023-02-22T01:32:57.109Z,5.40
2023-02-22T01:35:28.651Z,5.40
2023-02-22T01:37:56.382Z,5.40
2023-02-22T01:40:30.929Z,5.40
2023-02-22T01:43:01.508Z,5.40
2023-02-22T01:45:32.653Z,5.40
2023-02-22T01:48:21.071Z,5.40
2023-02-22T01:50:54.263Z,5.40
2023-02-22T01:53:30.334Z,5.40
2023-02-22T01:55:58.467Z,5.40
2023-02-22T01:58:27.014Z,5.30
2023-02-22T02:00:53.860Z,5.30
2023-02-22T02:03:28.350Z,5.40
2023-02-22T02:05:58.754Z,5.40
2023-02-22T02:08:42.535Z,5.40
2023-02-22T02:11:10.175Z,5.30
2023-02-22T02:13:37.483Z,5.30
2023-02-22T02:16:05.481Z,5.30
2023-02-22T02:18:32.609Z,5.20
2023-02-22T02:21:18.444Z,5.20
2023-02-22T02:24:30.812Z,5.20
2023-02-22T02:27:13.154Z,5.20
2023-02-22T02:30:07.307Z,5.20
2023-02-22T02:33:19.789Z,5.20
2023-02-22T02:35:54.087Z,5.00
2023-02-22T02:38:38.545Z,4.90
2023-02-22T02:41:14.934Z,4.90
2023-02-22T02:43:57.340Z,4.90
2023-02-22T02:46:26.472Z,5.00
2023-02-22T02:48:57.699Z,5.10
2023-02-22T02:51:29.267Z,5.10
2023-02-22T02:53:56.911Z,5.10
2023-02-22T02:56:25.467Z,5.20
2023-02-22T02:58:57.881Z,5.20
2023-02-22T03:01:37.085Z,5.30
2023-02-22T03:04:33.304Z,5.30
2023-02-22T03:07:22.315Z,5.30
2023-02-22T03:10:09.602Z,5.30
2023-02-22T03:12:54.201Z,5.30
2023-02-22T03:15:40.237Z,5.30
2023-02-22T03:18:17.940Z,5.20
2023-02-22T03:20:55.267Z,5.20
2023-02-22T03:23:27.184Z,5.30
2023-02-22T03:26:12.092Z,5.30
2023-02-22T03:28:42.975Z,5.30
2023-02-22T03:31:19.860Z,5.30
2023-02-22T03:33:52.747Z,5.30
2023-02-22T03:36:28.959Z,5.30
2023-02-22T03:38:58.898Z,5.30
2023-02-22T03:41:28.590Z,5.20
2023-02-22T03:44:01.906Z,5.20
2023-02-22T03:46:30.051Z,5.20
2023-02-22T03:49:11.961Z,5.10
2023-02-22T03:51:41.086Z,5.00
2023-02-22T03:54:16.174Z,4.90
2023-02-22T03:56:52.937Z,4.90
2023-02-22T03:59:27.593Z,4.90
2023-02-22T04:01:57.261Z,4.90
2023-02-22T04:04:25.119Z,4.90
2023-02-22T04:06:52.523Z,4.90
2023-02-22T04:09:20.068Z,4.80
2023-02-22T04:11:47.495Z,4.80
2023-02-22T04:14:14.851Z,4.80
2023-02-22T04:16:42.319Z,4.80
2023-02-22T04:19:11.580Z,4.80
2023-02-22T04:21:39.514Z,4.80
2023-02-22T04:24:11.758Z,4.80
2023-02-22T04:26:46.084Z,4.90
2023-02-22T04:29:12.907Z,4.90
2023-02-22T04:31:41.708Z,5.00
2023-02-22T04:34:10.872Z,5.10
2023-02-22T04:36:42.325Z,5.10
2023-02-22T04:39:09.735Z,5.20
2023-02-22T04:41:36.572Z,5.20
2023-02-22T04:44:03.643Z,5.20
2023-02-22T04:46:31.975Z,5.30
2023-02-22T04:48:59.043Z,5.30
2023-02-22T04:51:28.595Z,5.30
2023-02-22T04:54:19.639Z,5.40
2023-02-22T04:56:47.463Z,5.40
2023-02-22T04:59:14.930Z,5.40
2023-02-22T05:01:44.792Z,5.40
2023-02-22T05:04:12.627Z,5.30
2023-02-22T05:06:42.471Z,5.30
2023-02-22T05:09:09.464Z,5.30
2023-02-22T05:11:36.529Z,5.30
2023-02-22T05:14:03.423Z,5.30
2023-02-22T05:16:30.335Z,5.30
2023-02-22T05:18:57.218Z,5.30
2023-02-22T05:21:24.062Z,5.30
2023-02-22T05:23:50.790Z,5.40
2023-02-22T05:26:17.638Z,5.40
2023-02-22T05:28:51.491Z,5.40
2023-02-22T05:31:38.506Z,5.40
2023-02-22T05:34:10.939Z,5.40
2023-02-22T05:36:38.200Z,5.50
2023-02-22T05:39:05.428Z,5.50
2023-02-22T05:41:32.217Z,5.50
2023-02-22T05:43:59.175Z,5.50
2023-02-22T05:46:25.928Z,5.50
2023-02-22T05:48:52.688Z,5.50
2023-02-22T05:51:19.694Z,5.60
2023-02-22T05:53:46.499Z,5.60
2023-02-22T05:56:13.250Z,5.60
2023-02-22T05:58:39.973Z,5.70
2023-02-22T06:01:06.794Z,5.80
2023-02-22T06:03:33.544Z,5.80
2023-02-22T06:06:00.280Z,5.80
2023-02-22T06:08:27.006Z,5.80
2023-02-22T06:10:54.485Z,5.80
2023-02-22T06:13:25.232Z,5.80
2023-02-22T06:15:51.981Z,5.80
2023-02-22T06:18:18.798Z,5.80
2023-02-22T06:20:45.621Z,5.80
2023-02-22T06:23:12.364Z,5.90
2023-02-22T06:25:39.259Z,5.90
2023-02-22T06:28:06.066Z,5.90
2023-02-22T06:30:32.901Z,5.90
2023-02-22T06:33:00.180Z,6.00
2023-02-22T06:35:27.282Z,6.00
2023-02-22T06:37:54.198Z,6.00
2023-02-22T06:40:21.379Z,6.00
2023-02-22T06:42:49.336Z,6.00
2023-02-22T06:45:18.069Z,6.00
2023-02-22T06:47:45.043Z,6.10
2023-02-22T06:50:38.232Z,6.10
2023-02-22T06:53:05.329Z,6.20
2023-02-22T06:55:33.974Z,6.20
2023-02-22T06:58:01.785Z,6.30
2023-02-22T07:00:30.640Z,6.40
2023-02-22T07:03:00.344Z,6.40
2023-02-22T07:05:28.536Z,6.50
2023-02-22T07:08:01.567Z,6.50
2023-02-22T07:10:30.550Z,6.60
2023-02-22T07:12:57.664Z,6.70
2023-02-22T07:15:28.123Z,6.80
2023-02-22T07:17:55.818Z,6.90
2023-02-22T07:20:24.619Z,7.00
2023-02-22T07:22:51.687Z,7.10
2023-02-22T07:25:19.350Z,7.20
2023-02-22T07:27:48.188Z,7.40
2023-02-22T07:30:18.859Z,7.50
2023-02-22T07:32:46.803Z,7.60
2023-02-22T07:35:36.872Z,7.70
2023-02-22T07:38:10.626Z,7.90
2023-02-22T07:40:39.007Z,8.00
2023-02-22T07:43:21.095Z,8.10
2023-02-22T07:45:50.045Z,8.40
2023-02-22T07:48:18.219Z,8.80
2023-02-22T07:50:45.606Z,9.10
2023-02-22T07:53:15.279Z,9.50
2023-02-22T07:55:42.064Z,10.00
2023-02-22T07:58:09.539Z,10.40
2023-02-22T08:00:39.301Z,10.70
2023-02-22T08:03:08.942Z,11.00
2023-02-22T08:05:37.548Z,11.30
2023-02-22T08:08:06.335Z,11.70
2023-02-22T08:10:35.256Z,12.00
2023-02-22T08:13:03.090Z,12.20
2023-02-22T08:15:33.018Z,12.30
2023-02-22T08:18:01.408Z,12.60
2023-02-22T08:20:30.360Z,12.80
2023-02-22T08:22:58.102Z,13.10
2023-02-22T08:25:27.766Z,13.20
2023-02-22T08:28:02.816Z,13.40
2023-02-22T08:30:32.285Z,13.60
2023-02-22T08:32:59.665Z,13.70
2023-02-22T08:35:27.504Z,13.80
2023-02-22T08:37:57.624Z,13.80
2023-02-22T08:40:27.779Z,13.80
2023-02-22T08:42:55.584Z,13.80
2023-02-22T08:45:22.364Z,13.80
2023-02-22T08:47:49.537Z,13.80
2023-02-22T08:50:28.771Z,13.90
2023-02-22T08:52:59.437Z,13.90
2023-02-22T08:55:30.195Z,13.90
2023-02-22T08:57:57.091Z,14.00
2023-02-22T09:00:29.483Z,14.00
2023-02-22T09:02:56.505Z,14.00
2023-02-22T09:05:23.264Z,14.00
2023-02-22T09:07:50.012Z,14.10
2023-02-22T09:10:26.382Z,14.10
2023-02-22T09:12:57.634Z,14.00
2023-02-22T09:15:25.842Z,14.00
2023-02-22T09:17:53.431Z,14.00
2023-02-22T09:20:21.728Z,14.00
2023-02-22T09:22:49.767Z,14.10
2023-02-22T09:25:17.903Z,14.10
2023-02-22T09:27:47.953Z,14.20
2023-02-22T09:30:27.011Z,14.40
2023-02-22T09:32:56.135Z,14.40
2023-02-22T09:35:29.915Z,14.50
2023-02-22T09:37:58.477Z,14.50
2023-02-22T09:40:29.633Z,14.60
2023-02-22T09:43:07.212Z,14.70
2023-02-22T09:45:57.862Z,14.80
2023-02-22T09:48:25.457Z,15.00
2023-02-22T09:50:58.465Z,15.10
2023-02-22T09:53:37.151Z,15.20
2023-02-22T09:56:18.159Z,15.40
2023-02-22T09:58:48.620Z,15.50
2023-02-22T10:01:39.156Z,15.60
2023-02-22T10:04:30.418Z,15.60
2023-02-22T10:07:15.187Z,15.70
2023-02-22T10:09:45.341Z,16.00
2023-02-22T10:12:30.752Z,16.20
2023-02-22T10:15:27.677Z,16.50
2023-02-22T10:18:36.481Z,16.90
2023-02-22T10:21:19.926Z,17.40
2023-02-22T10:23:55.637Z,17.80
2023-02-22T10:26:36.710Z,18.10
2023-02-22T10:29:28.266Z,18.40
2023-02-22T10:31:59.268Z,18.40
2023-02-22T10:34:30.143Z,18.40
2023-02-22T10:37:20.352Z,18.60
2023-02-22T10:39:49.894Z,19.10
2023-02-22T10:42:16.754Z,19.40
2023-02-22T10:44:43.655Z,19.80
2023-02-22T10:47:17.125Z,20.40
2023-02-22T10:49:54.175Z,21.00
2023-02-22T10:52:30.820Z,21.60
2023-02-22T10:55:14.074Z,22.00
2023-02-22T10:57:44.337Z,22.30
2023-02-22T11:00:20.782Z,22.50
2023-02-22T11:02:54.086Z,22.60
2023-02-22T11:05:38.955Z,22.40
2023-02-22T11:08:20.856Z,22.30
2023-02-22T11:10:48.812Z,22.30
2023-02-22T11:13:25.844Z,22.30
2023-02-22T11:15:54.546Z,21.90
2023-02-22T11:18:35.139Z,21.50
2023-02-22T11:21:07.990Z,21.10
2023-02-22T11:23:36.499Z,20.60
2023-02-22T11:26:17.518Z,20.40
2023-02-22T11:28:49.524Z,20.40
2023-02-22T11:31:24.269Z,20.30
2023-02-22T11:33:58.934Z,20.20
2023-02-22T11:36:37.632Z,19.90
2023-02-22T11:39:20.250Z,19.70
2023-02-22T11:41:49.441Z,19.60
2023-02-22T11:44:28.681Z,19.40
2023-02-22T11:47:01.327Z,19.30
2023-02-22T11:49:38.191Z,19.10
2023-02-22T11:52:38.066Z,19.00
2023-02-22T11:55:42.139Z,18.80
2023-02-22T11:58:26.811Z,18.60
2023-02-22T12:01:22.045Z,18.20
2023-02-22T12:03:58.376Z,18.00
2023-02-22T12:06:32.967Z,17.90
2023-02-22T12:09:28.521Z,17.80
2023-02-22T12:12:04.386Z,17.80
2023-02-22T12:14:43.150Z,17.80
2023-02-22T12:17:32.945Z,17.90
2023-02-22T12:20:10.179Z,17.80
2023-02-22T12:22:45.376Z,17.70
2023-02-22T12:25:22.771Z,17.50
2023-02-22T12:27:54.069Z,17.40
2023-02-22T12:30:37.261Z,17.40
2023-02-22T12:33:12.075Z,17.40
2023-02-22T12:35:42.831Z,17.40
2023-02-22T12:38:22.924Z,17.20
2023-02-22T12:41:18.412Z,17.10
2023-02-22T12:43:59.172Z,17.10
2023-02-22T12:46:43.580Z,17.00
2023-02-22T12:49:33.320Z,16.80
2023-02-22T12:52:26.194Z,16.70
2023-02-22T12:55:37.232Z,16.50
2023-02-22T12:58:33.625Z,16.40
2023-02-22T13:01:12.075Z,16.30
2023-02-22T13:03:43.944Z,16.30
2023-02-22T13:06:53.834Z,16.20
2023-02-22T13:09:55.712Z,16.30
2023-02-22T13:12:57.852Z,16.50
2023-02-22T13:15:36.242Z,16.50
2023-02-22T13:18:21.766Z,16.60
2023-02-22T13:21:08.668Z,16.70
2023-02-22T13:24:03.494Z,16.70
2023-02-22T13:26:56.013Z,16.80
2023-02-22T13:29:34.556Z,16.80
2023-02-22T13:32:38.095Z,16.70
2023-02-22T13:35:24.071Z,16.70
2023-02-22T13:38:17.294Z,16.70
2023-02-22T13:41:02.537Z,16.70
2023-02-22T13:43:41.644Z,16.60
2023-02-22T13:46:39.054Z,16.60
2023-02-22T13:49:31.318Z,16.60
2023-02-22T13:52:06.694Z,16.60
2023-02-22T13:54:34.293Z,16.60
2023-02-22T13:57:03.045Z,16.60
2023-02-22T13:59:36.664Z,16.70
2023-02-22T14:02:05.616Z,17.00
2023-02-22T14:04:32.347Z,17.20
2023-02-22T14:07:06.253Z,17.30
2023-02-22T14:10:05.473Z,17.40
2023-02-22T14:12:35.047Z,17.50
2023-02-22T14:15:26.515Z,17.40
2023-02-22T14:18:01.927Z,17.20
2023-02-22T14:20:38.138Z,17.10
2023-02-22T14:23:24.051Z,17.10
2023-02-22T14:25:51.452Z,17.00
2023-02-22T14:28:42.501Z,16.90
2023-02-22T14:31:17.444Z,16.80
2023-02-22T14:33:56.746Z,16.70
2023-02-22T14:36:29.172Z,16.60
2023-02-22T14:39:06.762Z,16.50
2023-02-22T14:41:34.413Z,16.50
2023-02-22T14:44:03.936Z,16.50
2023-02-22T14:46:34.770Z,16.50
2023-02-22T14:49:05.436Z,16.40
2023-02-22T14:51:42.198Z,16.40
2023-02-22T14:54:46.749Z,16.30
2023-02-22T14:57:24.347Z,16.30
2023-02-22T15:00:20.137Z,16.20
2023-02-22T15:02:52.589Z,16.20
2023-02-22T15:05:20.792Z,16.10
2023-02-22T15:07:53.719Z,16.20
2023-02-22T15:10:50.348Z,16.10
2023-02-22T15:13:24.046Z,16.00
2023-02-22T15:16:04.757Z,15.90
2023-02-22T15:18:44.252Z,15.80
2023-02-22T15:21:15.930Z,15.70
2023-02-22T15:24:12.172Z,15.70
2023-02-22T15:26:51.988Z,15.70
2023-02-22T15:29:36.909Z,15.70
2023-02-22T15:32:27.375Z,15.60
2023-02-22T15:34:57.421Z,15.60
2023-02-22T15:37:27.882Z,15.60
2023-02-22T15:40:14.593Z,15.50
2023-02-22T15:42:50.376Z,15.40
2023-02-22T15:45:22.620Z,15.30
2023-02-22T15:47:49.940Z,15.30
2023-02-22T15:50:33.264Z,15.20
2023-02-22T15:53:06.758Z,15.20
2023-02-22T15:55:42.841Z,15.10
2023-02-22T15:58:18.670Z,15.00
2023-02-22T16:00:50.395Z,14.90
2023-02-22T16:03:27.941Z,14.70
2023-02-22T16:05:59.811Z,14.60
2023-02-22T16:08:55.180Z,14.40
2023-02-22T16:11:45.336Z,14.30
2023-02-22T16:14:40.080Z,14.10
2023-02-22T16:17:35.509Z,13.90
2023-02-22T16:20:11.190Z,13.80
2023-02-22T16:22:40.497Z,13.60
2023-02-22T16:25:19.584Z,13.40
2023-02-22T16:27:58.321Z,13.20
2023-02-22T16:30:37.100Z,13.10
2023-02-22T16:33:09.926Z,12.90
2023-02-22T16:35:36.773Z,12.80
2023-02-22T16:38:06.795Z,12.60
2023-02-22T16:40:45.597Z,12.50
2023-02-22T16:43:15.116Z,12.40
2023-02-22T16:45:42.742Z,12.30
2023-02-22T16:48:20.421Z,12.20
2023-02-22T16:50:53.065Z,12.10
2023-02-22T16:53:22.649Z,12.00
2023-02-22T16:55:53.814Z,11.90
2023-02-22T16:58:21.051Z,11.80
2023-02-22T17:00:47.996Z,11.70
2023-02-22T17:03:16.889Z,11.60
2023-02-22T17:05:46.919Z,11.50
2023-02-22T17:08:16.247Z,11.40
2023-02-22T17:10:46.283Z,11.30
2023-02-22T17:13:23.521Z,11.20
2023-02-22T17:15:54.665Z,11.20
2023-02-22T17:18:23.190Z,11.10
2023-02-22T17:20:51.746Z,11.00
2023-02-22T17:23:19.998Z,10.90
2023-02-22T17:26:04.121Z,10.80
2023-02-22T17:28:31.781Z,10.70
2023-02-22T17:31:02.672Z,10.70
2023-02-22T17:33:33.262Z,10.60
2023-02-22T17:36:02.025Z,10.50
2023-02-22T17:38:30.505Z,10.40
2023-02-22T17:40:59.039Z,10.30
2023-02-22T17:43:34.643Z,10.30
2023-02-22T17:46:07.758Z,10.20
2023-02-22T17:48:35.442Z,10.10
2023-02-22T17:51:12.184Z,10.10
2023-02-22T17:53:39.229Z,10.00
2023-02-22T17:56:08.023Z,10.00
2023-02-22T17:58:35.378Z,10.00
2023-02-22T18:01:02.609Z,9.90
2023-02-22T18:03:29.468Z,9.90
2023-02-22T18:05:58.807Z,9.90
2023-02-22T18:08:31.068Z,9.90
2023-02-22T18:10:58.824Z,9.90
2023-02-22T18:13:27.600Z,9.90
2023-02-22T18:16:01.068Z,9.90
2023-02-22T18:18:28.520Z,9.90
2023-02-22T18:20:59.369Z,9.90
2023-02-22T18:23:28.139Z,9.90
2023-02-22T18:26:09.710Z,9.90
2023-02-22T18:28:37.241Z,9.90
2023-02-22T18:31:15.154Z,9.90
2023-02-22T18:33:47.389Z,10.00
2023-02-22T18:36:16.145Z,10.00
2023-02-22T18:38:43.848Z,10.00
2023-02-22T18:41:19.738Z,10.00
2023-02-22T18:43:46.697Z,10.00
2023-02-22T18:46:17.797Z,9.90
2023-02-22T18:48:46.357Z,9.90
2023-02-22T18:51:15.432Z,10.00
2023-02-22T18:53:47.938Z,10.00
2023-02-22T18:56:21.876Z,10.00
2023-02-22T18:58:56.135Z,10.00
2023-02-22T19:01:23.447Z,10.00
2023-02-22T19:03:51.562Z,10.00
2023-02-22T19:06:19.813Z,9.90
2023-02-22T19:08:47.304Z,9.90
2023-02-22T19:11:23.041Z,9.80
2023-02-22T19:13:56.547Z,9.80
2023-02-22T19:16:26.418Z,9.80
2023-02-22T19:18:57.200Z,9.80
2023-02-22T19:21:26.637Z,9.80
2023-02-22T19:24:00.375Z,9.80
2023-02-22T19:26:28.001Z,9.80
2023-02-22T19:28:56.650Z,9.80
2023-02-22T19:31:31.313Z,9.80
2023-02-22T19:34:02.895Z,9.80
2023-02-22T19:36:30.200Z,9.80
2023-02-22T19:39:01.602Z,9.80
2023-02-22T19:41:29.393Z,9.80
2023-02-22T19:43:56.524Z,9.80
2023-02-22T19:46:25.108Z,9.80
2023-02-22T19:48:53.531Z,9.80
2023-02-22T19:51:25.187Z,9.80
2023-02-22T19:53:55.172Z,9.90
2023-02-22T19:56:27.285Z,9.80
2023-02-22T19:58:56.879Z,9.80
2023-02-22T20:01:26.566Z,9.70
2023-02-22T20:04:01.880Z,9.70
2023-02-22T20:06:40.133Z,9.70
2023-02-22T20:09:17.983Z,9.70
2023-02-22T20:11:53.487Z,9.70
2023-02-22T20:14:23.527Z,9.70
2023-02-22T20:16:51.679Z,9.80
2023-02-22T20:19:19.329Z,9.80
2023-02-22T20:21:46.086Z,9.80
2023-02-22T20:24:15.107Z,9.80
2023-02-22T20:26:42.631Z,9.80
2023-02-22T20:29:10.966Z,9.80
2023-02-22T20:31:39.684Z,9.90
2023-02-22T20:34:07.903Z,9.90
2023-02-22T20:36:38.278Z,9.90
2023-02-22T20:39:16.020Z,10.00
2023-02-22T20:41:46.980Z,10.00
2023-02-22T20:44:16.688Z,10.00
2023-02-22T20:46:43.880Z,10.00
2023-02-22T20:49:13.662Z,10.00
2023-02-22T20:51:41.831Z,10.00
2023-02-22T20:54:12.392Z,9.90
2023-02-22T20:56:44.465Z,9.90
2023-02-22T20:59:13.311Z,9.90
2023-02-22T21:01:40.610Z,9.90
2023-02-22T21:04:10.446Z,9.90
2023-02-22T21:06:39.560Z,9.80
2023-02-22T21:09:10.851Z,9.80
2023-02-22T21:11:38.984Z,9.80
2023-02-22T21:14:06.229Z,9.90
2023-02-22T21:16:36.016Z,9.90
2023-02-22T21:19:05.490Z,9.90
2023-02-22T21:21:32.864Z,10.00
2023-02-22T21:24:03.687Z,10.00
2023-02-22T21:26:33.208Z,10.00
2023-02-22T21:29:04.912Z,10.00
2023-02-22T21:31:33.206Z,10.00
2023-02-22T21:34:10.773Z,10.00
2023-02-22T21:36:40.833Z,10.00
2023-02-22T21:39:18.092Z,10.10
2023-02-22T21:41:55.358Z,10.10
2023-02-22T21:44:22.240Z,10.00
2023-02-22T21:46:49.880Z,10.00
2023-02-22T21:49:17.730Z,10.00
2023-02-22T21:51:44.967Z,9.90
2023-02-22T21:54:12.601Z,9.90
2023-02-22T21:56:43.861Z,9.80
2023-02-22T21:59:15.335Z,9.80
2023-02-22T22:01:50.670Z,9.70
2023-02-22T22:04:20.264Z,9.70
2023-02-22T22:06:56.921Z,9.60
2023-02-22T22:09:29.211Z,9.60
2023-02-22T22:11:58.878Z,9.50
2023-02-22T22:14:27.016Z,9.50
2023-02-22T22:16:58.452Z,9.50
2023-02-22T22:22:24.160Z,9.50
2023-02-22T22:24:53.735Z,9.50
2023-02-22T22:27:21.268Z,9.50
2023-02-22T22:29:48.135Z,9.50
2023-02-22T22:32:16.086Z,9.50
2023-02-22T22:34:43.540Z,9.50
2023-02-22T22:37:17.248Z,9.50
2023-02-22T22:39:52.672Z,9.50
2023-02-22T22:42:19.448Z,9.50
2023-02-22T22:44:50.229Z,9.50
2023-02-22T22:47:19.437Z,9.50
2023-02-22T22:49:47.786Z,9.60
2023-02-22T22:52:16.496Z,9.60
2023-02-22T22:54:43.809Z,9.60
2023-02-22T22:57:11.611Z,9.70
2023-02-22T22:59:39.628Z,9.70
2023-02-22T23:02:10.684Z,9.70
2023-02-22T23:04:38.106Z,9.70
2023-02-22T23:07:07.745Z,9.70
2023-02-22T23:09:37.432Z,9.70
2023-02-22T23:12:09.079Z,9.70
2023-02-22T23:14:45.238Z,9.70
2023-02-22T23:17:15.822Z,9.70
2023-02-22T23:19:47.547Z,9.70
2023-02-22T23:22:14.672Z,9.60
2023-02-22T23:24:42.600Z,9.50
2023-02-22T23:27:10.806Z,9.50
2023-02-22T23:29:39.361Z,9.50
2023-02-22T23:32:07.081Z,9.60
2023-02-22T23:34:35.813Z,9.60
2023-02-22T23:37:03.070Z,9.70
2023-02-22T23:39:30.055Z,9.70
2023-02-22T23:42:01.214Z,9.70
2023-02-22T23:44:31.572Z,9.60
2023-02-22T23:46:58.435Z,9.60
2023-02-22T23:49:38.727Z,9.60
2023-02-22T23:52:06.961Z,9.60
2023-02-22T23:54:40.067Z,9.60
2023-02-22T23:57:08.728Z,9.60
2023-02-22T23:59:36.054Z,9.60
